sensor_id;sensor_type;location;lat;lon;timestamp;P1;durP1;ratioP1;P2;durP2;ratioP2
51578;SDS011;47998;53.242;6.386;2023-10-13T00:00:29;321.80;;;47.78;;
51578;SDS011;47998;53.242;6.386;2023-10-13T00:02:58;306.25;;;47.55;;
51578;SDS011;47998;53.242;6.386;2023-10-13T00:05:30;288.92;;;45.55;;
51578;SDS011;47998;53.242;6.386;2023-10-13T00:07:59;249.93;;;44.92;;
51578;SDS011;47998;53.242;6.386;2023-10-13T00:10:32;295.80;;;47.85;;
51578;SDS011;47998;53.242;6.386;2023-10-13T00:13:01;230.73;;;43.85;;
51578;SDS011;47998;53.242;6.386;2023-10-13T00:15:46;212.30;;;45.33;;
51578;SDS011;47998;53.242;6.386;2023-10-13T00:18:28;217.95;;;46.55;;
51578;SDS011;47998;53.242;6.386;2023-10-13T00:20:59;177.23;;;44.22;;
51578;SDS011;47998;53.242;6.386;2023-10-13T00:23:25;223.88;;;50.60;;
51578;SDS011;47998;53.242;6.386;2023-10-13T00:25:57;170.32;;;46.35;;
51578;SDS011;47998;53.242;6.386;2023-10-13T00:28:25;162.63;;;46.50;;
51578;SDS011;47998;53.242;6.386;2023-10-13T00:31:00;165.90;;;47.17;;
51578;SDS011;47998;53.242;6.386;2023-10-13T00:33:36;146.88;;;44.20;;
51578;SDS011;47998;53.242;6.386;2023-10-13T00:36:03;154.60;;;45.72;;
51578;SDS011;47998;53.242;6.386;2023-10-13T00:38:30;138.35;;;43.17;;
51578;SDS011;47998;53.242;6.386;2023-10-13T00:40:57;146.65;;;43.38;;
51578;SDS011;47998;53.242;6.386;2023-10-13T00:43:29;121.60;;;40.92;;
51578;SDS011;47998;53.242;6.386;2023-10-13T00:45:58;116.18;;;40.75;;
51578;SDS011;47998;53.242;6.386;2023-10-13T00:48:32;133.98;;;42.80;;
51578;SDS011;47998;53.242;6.386;2023-10-13T00:51:01;122.88;;;41.78;;
51578;SDS011;47998;53.242;6.386;2023-10-13T00:53:29;118.25;;;40.65;;
51578;SDS011;47998;53.242;6.386;2023-10-13T00:56:00;120.50;;;40.88;;
51578;SDS011;47998;53.242;6.386;2023-10-13T00:58:36;102.78;;;38.38;;
51578;SDS011;47998;53.242;6.386;2023-10-13T01:01:05;104.72;;;38.42;;
51578;SDS011;47998;53.242;6.386;2023-10-13T01:03:46;102.70;;;39.63;;
51578;SDS011;47998;53.242;6.386;2023-10-13T01:06:16;94.13;;;37.00;;
51578;SDS011;47998;53.242;6.386;2023-10-13T01:08:46;101.97;;;37.35;;
51578;SDS011;47998;53.242;6.386;2023-10-13T01:11:19;101.05;;;37.28;;
51578;SDS011;47998;53.242;6.386;2023-10-13T01:13:48;97.13;;;38.33;;
51578;SDS011;47998;53.242;6.386;2023-10-13T01:16:19;108.97;;;38.95;;
51578;SDS011;47998;53.242;6.386;2023-10-13T01:18:52;119.88;;;41.25;;
51578;SDS011;47998;53.242;6.386;2023-10-13T01:21:18;109.82;;;36.80;;
51578;SDS011;47998;53.242;6.386;2023-10-13T01:23:53;106.07;;;37.83;;
51578;SDS011;47998;53.242;6.386;2023-10-13T01:26:19;111.40;;;40.47;;
51578;SDS011;47998;53.242;6.386;2023-10-13T01:28:51;104.05;;;37.03;;
51578;SDS011;47998;53.242;6.386;2023-10-13T01:31:22;93.50;;;36.55;;
51578;SDS011;47998;53.242;6.386;2023-10-13T01:33:53;88.72;;;34.60;;
51578;SDS011;47998;53.242;6.386;2023-10-13T01:36:22;89.13;;;34.58;;
51578;SDS011;47998;53.242;6.386;2023-10-13T01:38:48;93.00;;;35.45;;
51578;SDS011;47998;53.242;6.386;2023-10-13T01:41:18;67.13;;;32.90;;
51578;SDS011;47998;53.242;6.386;2023-10-13T01:43:45;81.53;;;34.67;;
51578;SDS011;47998;53.242;6.386;2023-10-13T01:46:11;71.30;;;31.60;;
51578;SDS011;47998;53.242;6.386;2023-10-13T01:48:39;70.45;;;30.15;;
51578;SDS011;47998;53.242;6.386;2023-10-13T01:51:05;74.43;;;32.08;;
51578;SDS011;47998;53.242;6.386;2023-10-13T01:53:35;66.75;;;30.80;;
51578;SDS011;47998;53.242;6.386;2023-10-13T01:56:02;58.97;;;28.90;;
51578;SDS011;47998;53.242;6.386;2023-10-13T01:58:35;68.63;;;28.90;;
51578;SDS011;47998;53.242;6.386;2023-10-13T02:01:08;61.88;;;28.00;;
51578;SDS011;47998;53.242;6.386;2023-10-13T02:03:35;54.17;;;26.50;;
51578;SDS011;47998;53.242;6.386;2023-10-13T02:06:07;51.53;;;24.55;;
51578;SDS011;47998;53.242;6.386;2023-10-13T02:08:35;54.05;;;24.77;;
51578;SDS011;47998;53.242;6.386;2023-10-13T02:11:07;49.75;;;24.20;;
51578;SDS011;47998;53.242;6.386;2023-10-13T02:13:34;50.60;;;24.60;;
51578;SDS011;47998;53.242;6.386;2023-10-13T02:16:06;39.58;;;21.75;;
51578;SDS011;47998;53.242;6.386;2023-10-13T02:18:32;37.92;;;19.58;;
51578;SDS011;47998;53.242;6.386;2023-10-13T02:21:08;38.15;;;20.90;;
51578;SDS011;47998;53.242;6.386;2023-10-13T02:23:40;36.00;;;20.00;;
51578;SDS011;47998;53.242;6.386;2023-10-13T02:26:11;38.22;;;20.00;;
51578;SDS011;47998;53.242;6.386;2023-10-13T02:28:41;32.40;;;19.25;;
51578;SDS011;47998;53.242;6.386;2023-10-13T02:31:08;35.30;;;19.73;;
51578;SDS011;47998;53.242;6.386;2023-10-13T02:33:34;37.53;;;18.75;;
51578;SDS011;47998;53.242;6.386;2023-10-13T02:36:09;32.50;;;17.45;;
51578;SDS011;47998;53.242;6.386;2023-10-13T02:38:37;29.40;;;17.20;;
51578;SDS011;47998;53.242;6.386;2023-10-13T02:41:17;33.20;;;17.42;;
51578;SDS011;47998;53.242;6.386;2023-10-13T02:43:54;31.63;;;17.98;;
51578;SDS011;47998;53.242;6.386;2023-10-13T02:46:21;30.77;;;17.40;;
51578;SDS011;47998;53.242;6.386;2023-10-13T02:48:47;32.38;;;17.77;;
51578;SDS011;47998;53.242;6.386;2023-10-13T02:51:18;32.30;;;15.98;;
51578;SDS011;47998;53.242;6.386;2023-10-13T02:53:56;34.05;;;18.27;;
51578;SDS011;47998;53.242;6.386;2023-10-13T02:56:28;31.67;;;16.52;;
51578;SDS011;47998;53.242;6.386;2023-10-13T02:58:54;29.45;;;17.70;;
51578;SDS011;47998;53.242;6.386;2023-10-13T03:01:30;33.33;;;17.83;;
51578;SDS011;47998;53.242;6.386;2023-10-13T03:04:02;29.75;;;18.85;;
51578;SDS011;47998;53.242;6.386;2023-10-13T03:06:29;34.30;;;19.20;;
51578;SDS011;47998;53.242;6.386;2023-10-13T03:08:58;33.90;;;18.42;;
51578;SDS011;47998;53.242;6.386;2023-10-13T03:11:42;32.17;;;18.80;;
51578;SDS011;47998;53.242;6.386;2023-10-13T03:14:19;33.63;;;19.15;;
51578;SDS011;47998;53.242;6.386;2023-10-13T03:16:55;35.25;;;18.90;;
51578;SDS011;47998;53.242;6.386;2023-10-13T03:19:30;31.85;;;18.17;;
51578;SDS011;47998;53.242;6.386;2023-10-13T03:22:03;39.03;;;20.77;;
51578;SDS011;47998;53.242;6.386;2023-10-13T03:24:35;40.78;;;21.88;;
51578;SDS011;47998;53.242;6.386;2023-10-13T03:27:04;41.15;;;22.67;;
51578;SDS011;47998;53.242;6.386;2023-10-13T03:29:49;42.00;;;24.05;;
51578;SDS011;47998;53.242;6.386;2023-10-13T03:32:21;44.35;;;22.02;;
51578;SDS011;47998;53.242;6.386;2023-10-13T03:34:51;40.95;;;23.13;;
51578;SDS011;47998;53.242;6.386;2023-10-13T03:37:17;44.72;;;24.65;;
51578;SDS011;47998;53.242;6.386;2023-10-13T03:39:47;42.17;;;23.42;;
51578;SDS011;47998;53.242;6.386;2023-10-13T03:42:13;41.70;;;24.17;;
51578;SDS011;47998;53.242;6.386;2023-10-13T03:44:47;36.53;;;21.77;;
51578;SDS011;47998;53.242;6.386;2023-10-13T03:47:13;38.45;;;21.25;;
51578;SDS011;47998;53.242;6.386;2023-10-13T03:49:54;37.90;;;21.77;;
51578;SDS011;47998;53.242;6.386;2023-10-13T03:52:38;35.72;;;21.17;;
51578;SDS011;47998;53.242;6.386;2023-10-13T03:55:04;40.10;;;21.25;;
51578;SDS011;47998;53.242;6.386;2023-10-13T03:57:31;39.13;;;21.55;;
51578;SDS011;47998;53.242;6.386;2023-10-13T04:00:03;30.23;;;18.90;;
51578;SDS011;47998;53.242;6.386;2023-10-13T04:02:34;34.95;;;20.55;;
51578;SDS011;47998;53.242;6.386;2023-10-13T04:05:02;28.38;;;18.70;;
51578;SDS011;47998;53.242;6.386;2023-10-13T04:07:33;31.42;;;19.25;;
51578;SDS011;47998;53.242;6.386;2023-10-13T04:10:06;30.08;;;16.75;;
51578;SDS011;47998;53.242;6.386;2023-10-13T04:12:51;27.48;;;16.73;;
51578;SDS011;47998;53.242;6.386;2023-10-13T04:15:35;28.30;;;17.00;;
51578;SDS011;47998;53.242;6.386;2023-10-13T04:18:26;29.40;;;16.77;;
51578;SDS011;47998;53.242;6.386;2023-10-13T04:21:15;28.55;;;15.98;;
51578;SDS011;47998;53.242;6.386;2023-10-13T04:24:01;27.58;;;17.05;;
51578;SDS011;47998;53.242;6.386;2023-10-13T04:26:48;30.10;;;18.58;;
51578;SDS011;47998;53.242;6.386;2023-10-13T04:29:33;27.55;;;17.90;;
51578;SDS011;47998;53.242;6.386;2023-10-13T04:32:18;27.13;;;16.45;;
51578;SDS011;47998;53.242;6.386;2023-10-13T04:35:03;23.50;;;16.55;;
51578;SDS011;47998;53.242;6.386;2023-10-13T04:37:43;55.72;;;19.80;;
51578;SDS011;47998;53.242;6.386;2023-10-13T04:40:18;27.77;;;17.27;;
51578;SDS011;47998;53.242;6.386;2023-10-13T04:42:50;25.70;;;14.35;;
51578;SDS011;47998;53.242;6.386;2023-10-13T04:45:22;28.35;;;17.05;;
51578;SDS011;47998;53.242;6.386;2023-10-13T04:47:57;26.85;;;17.98;;
51578;SDS011;47998;53.242;6.386;2023-10-13T04:50:58;21.33;;;12.85;;
51578;SDS011;47998;53.242;6.386;2023-10-13T04:53:45;20.75;;;14.32;;
51578;SDS011;47998;53.242;6.386;2023-10-13T04:56:31;26.52;;;16.58;;
51578;SDS011;47998;53.242;6.386;2023-10-13T04:59:23;29.23;;;17.17;;
51578;SDS011;47998;53.242;6.386;2023-10-13T05:02:02;34.83;;;17.75;;
51578;SDS011;47998;53.242;6.386;2023-10-13T05:04:46;28.25;;;16.27;;
51578;SDS011;47998;53.242;6.386;2023-10-13T05:07:31;29.70;;;16.20;;
51578;SDS011;47998;53.242;6.386;2023-10-13T05:10:18;29.08;;;15.10;;
51578;SDS011;47998;53.242;6.386;2023-10-13T05:13:03;20.55;;;12.75;;
51578;SDS011;47998;53.242;6.386;2023-10-13T05:15:48;25.30;;;13.50;;
51578;SDS011;47998;53.242;6.386;2023-10-13T05:18:33;25.67;;;14.82;;
51578;SDS011;47998;53.242;6.386;2023-10-13T05:21:18;19.67;;;11.15;;
51578;SDS011;47998;53.242;6.386;2023-10-13T05:24:03;25.50;;;13.60;;
51578;SDS011;47998;53.242;6.386;2023-10-13T05:26:48;21.95;;;13.43;;
51578;SDS011;47998;53.242;6.386;2023-10-13T05:29:32;20.35;;;11.93;;
51578;SDS011;47998;53.242;6.386;2023-10-13T05:32:16;18.20;;;10.30;;
51578;SDS011;47998;53.242;6.386;2023-10-13T05:35:01;15.48;;;9.77;;
51578;SDS011;47998;53.242;6.386;2023-10-13T05:37:45;17.42;;;9.55;;
51578;SDS011;47998;53.242;6.386;2023-10-13T05:40:30;20.38;;;10.93;;
51578;SDS011;47998;53.242;6.386;2023-10-13T05:43:14;15.57;;;10.07;;
51578;SDS011;47998;53.242;6.386;2023-10-13T05:46:02;17.75;;;10.38;;
51578;SDS011;47998;53.242;6.386;2023-10-13T05:48:47;11.32;;;7.85;;
51578;SDS011;47998;53.242;6.386;2023-10-13T05:54:00;8.32;;;5.60;;
51578;SDS011;47998;53.242;6.386;2023-10-13T05:56:39;9.25;;;6.38;;
51578;SDS011;47998;53.242;6.386;2023-10-13T05:59:28;9.32;;;5.90;;
51578;SDS011;47998;53.242;6.386;2023-10-13T06:02:14;8.52;;;5.35;;
51578;SDS011;47998;53.242;6.386;2023-10-13T06:05:03;10.52;;;6.50;;
51578;SDS011;47998;53.242;6.386;2023-10-13T06:07:48;11.48;;;6.97;;
51578;SDS011;47998;53.242;6.386;2023-10-13T06:10:33;13.43;;;6.38;;
51578;SDS011;47998;53.242;6.386;2023-10-13T06:13:17;12.40;;;7.00;;
51578;SDS011;47998;53.242;6.386;2023-10-13T06:16:12;8.73;;;6.45;;
51578;SDS011;47998;53.242;6.386;2023-10-13T06:18:59;10.60;;;6.68;;
51578;SDS011;47998;53.242;6.386;2023-10-13T06:21:44;10.13;;;7.00;;
51578;SDS011;47998;53.242;6.386;2023-10-13T06:24:29;14.70;;;8.00;;
51578;SDS011;47998;53.242;6.386;2023-10-13T06:27:14;10.43;;;7.22;;
51578;SDS011;47998;53.242;6.386;2023-10-13T06:29:59;10.25;;;6.47;;
51578;SDS011;47998;53.242;6.386;2023-10-13T06:32:26;10.00;;;7.15;;
51578;SDS011;47998;53.242;6.386;2023-10-13T06:34:52;10.07;;;6.88;;
51578;SDS011;47998;53.242;6.386;2023-10-13T06:37:42;9.40;;;6.75;;
51578;SDS011;47998;53.242;6.386;2023-10-13T06:40:11;10.68;;;7.00;;
51578;SDS011;47998;53.242;6.386;2023-10-13T06:43:00;7.28;;;5.45;;
51578;SDS011;47998;53.242;6.386;2023-10-13T06:45:42;6.88;;;5.35;;
51578;SDS011;47998;53.242;6.386;2023-10-13T06:48:15;6.55;;;5.43;;
51578;SDS011;47998;53.242;6.386;2023-10-13T06:50:49;9.35;;;6.65;;
51578;SDS011;47998;53.242;6.386;2023-10-13T06:53:17;7.85;;;5.45;;
51578;SDS011;47998;53.242;6.386;2023-10-13T06:55:44;9.15;;;6.07;;
51578;SDS011;47998;53.242;6.386;2023-10-13T06:58:15;6.25;;;4.80;;
51578;SDS011;47998;53.242;6.386;2023-10-13T07:00:43;7.82;;;4.68;;
51578;SDS011;47998;53.242;6.386;2023-10-13T07:03:24;8.10;;;6.07;;
51578;SDS011;47998;53.242;6.386;2023-10-13T07:05:50;9.10;;;5.10;;
51578;SDS011;47998;53.242;6.386;2023-10-13T07:08:17;7.00;;;4.70;;
51578;SDS011;47998;53.242;6.386;2023-10-13T07:10:53;8.55;;;5.45;;
51578;SDS011;47998;53.242;6.386;2023-10-13T07:13:43;8.68;;;4.55;;
51578;SDS011;47998;53.242;6.386;2023-10-13T07:16:15;8.98;;;4.45;;
51578;SDS011;47998;53.242;6.386;2023-10-13T07:18:41;7.78;;;4.20;;
51578;SDS011;47998;53.242;6.386;2023-10-13T07:21:17;10.25;;;5.00;;
51578;SDS011;47998;53.242;6.386;2023-10-13T07:23:58;10.73;;;4.93;;
51578;SDS011;47998;53.242;6.386;2023-10-13T07:26:34;11.52;;;5.03;;
51578;SDS011;47998;53.242;6.386;2023-10-13T07:29:07;9.70;;;4.45;;
51578;SDS011;47998;53.242;6.386;2023-10-13T07:31:36;15.38;;;5.55;;
51578;SDS011;47998;53.242;6.386;2023-10-13T07:34:06;13.07;;;5.03;;
51578;SDS011;47998;53.242;6.386;2023-10-13T07:36:42;12.50;;;5.35;;
51578;SDS011;47998;53.242;6.386;2023-10-13T07:39:08;15.85;;;5.15;;
51578;SDS011;47998;53.242;6.386;2023-10-13T07:41:50;16.67;;;4.95;;
51578;SDS011;47998;53.242;6.386;2023-10-13T07:44:28;15.82;;;6.15;;
51578;SDS011;47998;53.242;6.386;2023-10-13T07:46:58;11.75;;;5.20;;
51578;SDS011;47998;53.242;6.386;2023-10-13T07:49:30;13.25;;;5.55;;
51578;SDS011;47998;53.242;6.386;2023-10-13T07:51:58;15.10;;;4.80;;
51578;SDS011;47998;53.242;6.386;2023-10-13T07:54:26;16.15;;;6.35;;
51578;SDS011;47998;53.242;6.386;2023-10-13T07:56:52;14.32;;;6.00;;
51578;SDS011;47998;53.242;6.386;2023-10-13T07:59:20;18.63;;;6.10;;
51578;SDS011;47998;53.242;6.386;2023-10-13T08:01:48;14.75;;;6.95;;
51578;SDS011;47998;53.242;6.386;2023-10-13T08:04:34;17.02;;;6.20;;
51578;SDS011;47998;53.242;6.386;2023-10-13T08:07:02;15.80;;;6.38;;
51578;SDS011;47998;53.242;6.386;2023-10-13T08:09:38;13.82;;;5.68;;
51578;SDS011;47998;53.242;6.386;2023-10-13T08:12:08;13.93;;;4.78;;
51578;SDS011;47998;53.242;6.386;2023-10-13T08:14:38;18.10;;;6.20;;
51578;SDS011;47998;53.242;6.386;2023-10-13T08:17:06;13.93;;;6.75;;
51578;SDS011;47998;53.242;6.386;2023-10-13T08:19:36;14.20;;;6.35;;
51578;SDS011;47998;53.242;6.386;2023-10-13T08:22:05;14.85;;;6.05;;
51578;SDS011;47998;53.242;6.386;2023-10-13T08:24:46;16.70;;;6.47;;
51578;SDS011;47998;53.242;6.386;2023-10-13T08:27:13;20.23;;;6.13;;
51578;SDS011;47998;53.242;6.386;2023-10-13T08:29:47;18.23;;;6.28;;
51578;SDS011;47998;53.242;6.386;2023-10-13T08:32:22;15.38;;;6.40;;
51578;SDS011;47998;53.242;6.386;2023-10-13T08:34:58;19.80;;;7.28;;
51578;SDS011;47998;53.242;6.386;2023-10-13T08:37:45;14.55;;;6.57;;
51578;SDS011;47998;53.242;6.386;2023-10-13T08:40:24;18.85;;;6.80;;
51578;SDS011;47998;53.242;6.386;2023-10-13T08:43:11;13.18;;;6.22;;
51578;SDS011;47998;53.242;6.386;2023-10-13T08:45:39;15.15;;;6.50;;
51578;SDS011;47998;53.242;6.386;2023-10-13T08:48:12;19.15;;;6.03;;
51578;SDS011;47998;53.242;6.386;2023-10-13T08:50:45;16.17;;;7.25;;
51578;SDS011;47998;53.242;6.386;2023-10-13T08:53:21;19.25;;;7.53;;
51578;SDS011;47998;53.242;6.386;2023-10-13T08:56:12;14.18;;;5.90;;
51578;SDS011;47998;53.242;6.386;2023-10-13T08:58:41;12.43;;;6.13;;
51578;SDS011;47998;53.242;6.386;2023-10-13T09:01:32;14.65;;;6.72;;
51578;SDS011;47998;53.242;6.386;2023-10-13T09:04:16;19.23;;;7.88;;
51578;SDS011;47998;53.242;6.386;2023-10-13T09:07:16;14.63;;;7.53;;
51578;SDS011;47998;53.242;6.386;2023-10-13T09:12:12;15.80;;;5.72;;
51578;SDS011;47998;53.242;6.386;2023-10-13T09:15:01;20.35;;;7.07;;
51578;SDS011;47998;53.242;6.386;2023-10-13T09:20:17;18.67;;;8.02;;
51578;SDS011;47998;53.242;6.386;2023-10-13T09:23:14;17.20;;;6.70;;
51578;SDS011;47998;53.242;6.386;2023-10-13T09:25:50;14.38;;;7.40;;
51578;SDS011;47998;53.242;6.386;2023-10-13T09:28:23;16.70;;;6.43;;
51578;SDS011;47998;53.242;6.386;2023-10-13T09:30:53;14.50;;;7.45;;
51578;SDS011;47998;53.242;6.386;2023-10-13T09:33:23;13.32;;;5.93;;
51578;SDS011;47998;53.242;6.386;2023-10-13T09:36:06;16.63;;;6.50;;
51578;SDS011;47998;53.242;6.386;2023-10-13T09:38:33;14.10;;;7.18;;
51578;SDS011;47998;53.242;6.386;2023-10-13T09:41:04;12.35;;;6.13;;
51578;SDS011;47998;53.242;6.386;2023-10-13T09:43:46;12.53;;;6.27;;
51578;SDS011;47998;53.242;6.386;2023-10-13T09:46:18;12.57;;;6.05;;
51578;SDS011;47998;53.242;6.386;2023-10-13T09:48:48;11.35;;;6.28;;
51578;SDS011;47998;53.242;6.386;2023-10-13T09:51:32;14.75;;;8.02;;
51578;SDS011;47998;53.242;6.386;2023-10-13T09:54:14;11.18;;;6.63;;
51578;SDS011;47998;53.242;6.386;2023-10-13T09:56:53;11.63;;;6.50;;
51578;SDS011;47998;53.242;6.386;2023-10-13T10:02:06;16.90;;;6.70;;
51578;SDS011;47998;53.242;6.386;2023-10-13T10:04:34;17.13;;;7.28;;
51578;SDS011;47998;53.242;6.386;2023-10-13T10:07:25;15.38;;;5.35;;
51578;SDS011;47998;53.242;6.386;2023-10-13T10:10:00;15.52;;;6.57;;
51578;SDS011;47998;53.242;6.386;2023-10-13T10:17:56;11.48;;;5.88;;
51578;SDS011;47998;53.242;6.386;2023-10-13T10:20:28;15.23;;;6.40;;
51578;SDS011;47998;53.242;6.386;2023-10-13T10:23:07;14.43;;;5.10;;
51578;SDS011;47998;53.242;6.386;2023-10-13T10:25:42;18.65;;;5.53;;
51578;SDS011;47998;53.242;6.386;2023-10-13T10:28:11;17.90;;;5.13;;
51578;SDS011;47998;53.242;6.386;2023-10-13T10:30:41;14.63;;;5.30;;
51578;SDS011;47998;53.242;6.386;2023-10-13T10:33:08;18.77;;;6.72;;
51578;SDS011;47998;53.242;6.386;2023-10-13T10:35:42;12.20;;;4.75;;
51578;SDS011;47998;53.242;6.386;2023-10-13T10:40:55;11.73;;;4.55;;
51578;SDS011;47998;53.242;6.386;2023-10-13T10:46:09;12.77;;;4.05;;
51578;SDS011;47998;53.242;6.386;2023-10-13T10:48:39;12.48;;;6.32;;
51578;SDS011;47998;53.242;6.386;2023-10-13T10:51:08;14.55;;;4.75;;
51578;SDS011;47998;53.242;6.386;2023-10-13T10:53:40;18.88;;;5.15;;
51578;SDS011;47998;53.242;6.386;2023-10-13T10:56:13;9.52;;;4.03;;
51578;SDS011;47998;53.242;6.386;2023-10-13T10:58:59;14.75;;;4.85;;
51578;SDS011;47998;53.242;6.386;2023-10-13T11:01:26;10.90;;;3.67;;
51578;SDS011;47998;53.242;6.386;2023-10-13T11:04:02;18.55;;;4.60;;
51578;SDS011;47998;53.242;6.386;2023-10-13T11:06:50;13.75;;;4.38;;
51578;SDS011;47998;53.242;6.386;2023-10-13T11:09:35;14.73;;;4.75;;
51578;SDS011;47998;53.242;6.386;2023-10-13T11:14:44;15.07;;;5.32;;
51578;SDS011;47998;53.242;6.386;2023-10-13T11:17:19;12.48;;;4.63;;
51578;SDS011;47998;53.242;6.386;2023-10-13T11:19:49;14.77;;;4.95;;
51578;SDS011;47998;53.242;6.386;2023-10-13T11:22:16;16.08;;;4.50;;
51578;SDS011;47998;53.242;6.386;2023-10-13T11:24:57;16.83;;;4.05;;
51578;SDS011;47998;53.242;6.386;2023-10-13T11:27:30;20.38;;;4.35;;
51578;SDS011;47998;53.242;6.386;2023-10-13T11:30:20;13.32;;;4.88;;
51578;SDS011;47998;53.242;6.386;2023-10-13T11:35:54;10.40;;;4.18;;
51578;SDS011;47998;53.242;6.386;2023-10-13T11:41:14;12.82;;;4.18;;
51578;SDS011;47998;53.242;6.386;2023-10-13T11:46:09;17.38;;;4.40;;
51578;SDS011;47998;53.242;6.386;2023-10-13T11:48:38;14.68;;;4.57;;
51578;SDS011;47998;53.242;6.386;2023-10-13T11:51:15;14.35;;;3.90;;
51578;SDS011;47998;53.242;6.386;2023-10-13T11:53:57;15.52;;;4.55;;
51578;SDS011;47998;53.242;6.386;2023-10-13T11:56:23;14.73;;;4.40;;
51578;SDS011;47998;53.242;6.386;2023-10-13T11:58:50;15.82;;;5.20;;
51578;SDS011;47998;53.242;6.386;2023-10-13T12:01:16;15.73;;;5.50;;
51578;SDS011;47998;53.242;6.386;2023-10-13T12:03:43;11.80;;;4.47;;
51578;SDS011;47998;53.242;6.386;2023-10-13T12:06:30;15.60;;;4.85;;
51578;SDS011;47998;53.242;6.386;2023-10-13T12:09:06;17.60;;;5.97;;
51578;SDS011;47998;53.242;6.386;2023-10-13T12:12:05;23.40;;;7.07;;
51578;SDS011;47998;53.242;6.386;2023-10-13T12:14:30;14.10;;;5.45;;
51578;SDS011;47998;53.242;6.386;2023-10-13T12:17:03;13.87;;;4.97;;
51578;SDS011;47998;53.242;6.386;2023-10-13T12:19:30;13.32;;;5.35;;
51578;SDS011;47998;53.242;6.386;2023-10-13T12:21:56;17.33;;;5.68;;
51578;SDS011;47998;53.242;6.386;2023-10-13T12:24:29;17.27;;;5.32;;
51578;SDS011;47998;53.242;6.386;2023-10-13T12:27:01;22.00;;;6.15;;
51578;SDS011;47998;53.242;6.386;2023-10-13T12:29:27;16.25;;;5.47;;
51578;SDS011;47998;53.242;6.386;2023-10-13T12:32:00;15.85;;;5.25;;
51578;SDS011;47998;53.242;6.386;2023-10-13T12:37:22;14.95;;;6.18;;
51578;SDS011;47998;53.242;6.386;2023-10-13T12:40:14;16.55;;;6.80;;
51578;SDS011;47998;53.242;6.386;2023-10-13T12:42:59;22.75;;;6.20;;
51578;SDS011;47998;53.242;6.386;2023-10-13T12:45:47;16.75;;;5.85;;
51578;SDS011;47998;53.242;6.386;2023-10-13T12:48:32;15.55;;;6.68;;
51578;SDS011;47998;53.242;6.386;2023-10-13T12:51:18;17.65;;;6.57;;
51578;SDS011;47998;53.242;6.386;2023-10-13T12:53:53;17.10;;;6.80;;
51578;SDS011;47998;53.242;6.386;2023-10-13T12:56:26;14.60;;;5.88;;
51578;SDS011;47998;53.242;6.386;2023-10-13T12:58:51;18.05;;;6.40;;
51578;SDS011;47998;53.242;6.386;2023-10-13T13:01:21;16.85;;;6.28;;
51578;SDS011;47998;53.242;6.386;2023-10-13T13:03:48;17.75;;;7.10;;
51578;SDS011;47998;53.242;6.386;2023-10-13T13:06:21;15.80;;;6.93;;
51578;SDS011;47998;53.242;6.386;2023-10-13T13:08:54;20.27;;;7.22;;
51578;SDS011;47998;53.242;6.386;2023-10-13T13:11:21;21.15;;;6.60;;
51578;SDS011;47998;53.242;6.386;2023-10-13T13:13:48;15.98;;;7.22;;
51578;SDS011;47998;53.242;6.386;2023-10-13T13:16:18;21.73;;;8.07;;
51578;SDS011;47998;53.242;6.386;2023-10-13T13:18:49;25.80;;;8.88;;
51578;SDS011;47998;53.242;6.386;2023-10-13T13:21:15;15.52;;;6.40;;
51578;SDS011;47998;53.242;6.386;2023-10-13T13:23:52;17.85;;;8.73;;
51578;SDS011;47998;53.242;6.386;2023-10-13T13:26:21;19.42;;;7.93;;
51578;SDS011;47998;53.242;6.386;2023-10-13T13:28:48;32.00;;;9.23;;
51578;SDS011;47998;53.242;6.386;2023-10-13T13:31:18;14.80;;;7.57;;
51578;SDS011;47998;53.242;6.386;2023-10-13T13:33:51;21.33;;;8.18;;
51578;SDS011;47998;53.242;6.386;2023-10-13T13:36:17;19.33;;;7.00;;
51578;SDS011;47998;53.242;6.386;2023-10-13T13:38:46;13.63;;;5.97;;
51578;SDS011;47998;53.242;6.386;2023-10-13T13:41:14;13.25;;;6.40;;
51578;SDS011;47998;53.242;6.386;2023-10-13T13:43:43;12.77;;;7.00;;
51578;SDS011;47998;53.242;6.386;2023-10-13T13:46:20;21.42;;;8.30;;
51578;SDS011;47998;53.242;6.386;2023-10-13T13:48:58;22.15;;;8.98;;
51578;SDS011;47998;53.242;6.386;2023-10-13T13:51:28;21.48;;;9.13;;
51578;SDS011;47998;53.242;6.386;2023-10-13T13:53:56;17.48;;;6.55;;
51578;SDS011;47998;53.242;6.386;2023-10-13T13:56:24;22.85;;;9.13;;
51578;SDS011;47998;53.242;6.386;2023-10-13T13:58:50;12.27;;;4.82;;
51578;SDS011;47998;53.242;6.386;2023-10-13T14:01:17;18.20;;;7.78;;
51578;SDS011;47998;53.242;6.386;2023-10-13T14:03:45;15.85;;;6.10;;
51578;SDS011;47998;53.242;6.386;2023-10-13T14:06:12;12.80;;;5.97;;
51578;SDS011;47998;53.242;6.386;2023-10-13T14:08:54;19.50;;;6.03;;
51578;SDS011;47998;53.242;6.386;2023-10-13T14:11:31;14.95;;;6.15;;
51578;SDS011;47998;53.242;6.386;2023-10-13T14:14:00;19.25;;;5.97;;
51578;SDS011;47998;53.242;6.386;2023-10-13T14:16:29;18.23;;;6.50;;
51578;SDS011;47998;53.242;6.386;2023-10-13T14:18:58;16.33;;;5.63;;
51578;SDS011;47998;53.242;6.386;2023-10-13T14:21:27;24.02;;;6.85;;
51578;SDS011;47998;53.242;6.386;2023-10-13T14:23:53;17.60;;;5.13;;
51578;SDS011;47998;53.242;6.386;2023-10-13T14:26:19;11.32;;;4.85;;
51578;SDS011;47998;53.242;6.386;2023-10-13T14:28:50;18.08;;;7.30;;
51578;SDS011;47998;53.242;6.386;2023-10-13T14:31:33;11.30;;;5.82;;
51578;SDS011;47998;53.242;6.386;2023-10-13T14:34:03;21.48;;;6.60;;
51578;SDS011;47998;53.242;6.386;2023-10-13T14:36:29;17.17;;;6.40;;
51578;SDS011;47998;53.242;6.386;2023-10-13T14:38:59;13.73;;;5.88;;
51578;SDS011;47998;53.242;6.386;2023-10-13T14:41:26;14.07;;;5.28;;
51578;SDS011;47998;53.242;6.386;2023-10-13T14:43:52;20.85;;;5.70;;
51578;SDS011;47998;53.242;6.386;2023-10-13T14:46:21;13.07;;;5.07;;
51578;SDS011;47998;53.242;6.386;2023-10-13T14:48:53;25.13;;;6.60;;
51578;SDS011;47998;53.242;6.386;2023-10-13T14:51:19;20.88;;;5.30;;
51578;SDS011;47998;53.242;6.386;2023-10-13T14:53:48;11.05;;;4.57;;
51578;SDS011;47998;53.242;6.386;2023-10-13T14:56:14;15.90;;;5.45;;
51578;SDS011;47998;53.242;6.386;2023-10-13T14:58:42;15.02;;;5.15;;
51578;SDS011;47998;53.242;6.386;2023-10-13T15:01:16;15.15;;;5.55;;
51578;SDS011;47998;53.242;6.386;2023-10-13T15:03:43;14.55;;;4.90;;
51578;SDS011;47998;53.242;6.386;2023-10-13T15:06:18;16.05;;;4.57;;
51578;SDS011;47998;53.242;6.386;2023-10-13T15:08:46;13.65;;;4.88;;
51578;SDS011;47998;53.242;6.386;2023-10-13T15:11:13;15.15;;;5.72;;
51578;SDS011;47998;53.242;6.386;2023-10-13T15:13:39;17.38;;;5.75;;
51578;SDS011;47998;53.242;6.386;2023-10-13T15:16:15;14.43;;;4.72;;
51578;SDS011;47998;53.242;6.386;2023-10-13T15:18:45;19.38;;;5.82;;
51578;SDS011;47998;53.242;6.386;2023-10-13T15:21:24;19.70;;;6.25;;
51578;SDS011;47998;53.242;6.386;2023-10-13T15:23:57;19.90;;;6.38;;
51578;SDS011;47998;53.242;6.386;2023-10-13T15:26:32;17.40;;;6.25;;
51578;SDS011;47998;53.242;6.386;2023-10-13T15:29:03;14.68;;;5.93;;
51578;SDS011;47998;53.242;6.386;2023-10-13T15:31:34;11.98;;;4.80;;
51578;SDS011;47998;53.242;6.386;2023-10-13T15:34:00;20.88;;;5.90;;
51578;SDS011;47998;53.242;6.386;2023-10-13T15:36:41;17.38;;;6.07;;
51578;SDS011;47998;53.242;6.386;2023-10-13T15:39:09;19.88;;;6.53;;
51578;SDS011;47998;53.242;6.386;2023-10-13T15:41:35;17.73;;;5.80;;
51578;SDS011;47998;53.242;6.386;2023-10-13T15:44:06;13.20;;;5.20;;